Etusivu
METAR-TAF:

METAR-TAF

Lentoasemat :

Sheridan County Airport

Sheridan, Wyoming, Yhdysvallat

Leveyspiiri: 44-46-10N, Pituuspiiri: 106-58-08W, korkeus merenpinnasta: 1225 m

Tämänhetkinen sää

Tämä raportti tehtiin 44 minuuttia sitten, kello 02.53 UTC
Tuuli 5 kn lännestä
Lämpötila -2°C
Kosteus 63%
Ilmanpaine 1020 hPa
Näkyvyys: 16.1 km
selkeää

METAR: KSHR 160253Z AUTO 26005KT 10SM CLR M02/M08 A3012 RMK AO2 SLP216 T10221078 51026

Aika: 20:37 (03:37 UTC)

Sääennuste

Tämä raportti tehtiin 4 tuntia ja 9 minuuttia sitten, kello 23.28 UTC
Ennuste voimassa 16. päivästä klo 00 UTC - 16. päivään klo 24 UTC
Tuuli 9 kn luoteesta
Näkyvyys: 10 km
Muutamia pilviä 15000 ft:n korkeudessa
From 16. päivästä klo 0200 UTC
Tuuli 4 kn eri suunnista
Näkyvyys: 10 km
Hajanaisia pilviä 15000 ft:n korkeudessa
From 16. päivästä klo 1300 UTC
Tuuli 4 kn eri suunnista
Näkyvyys: 10 km
selkeää

TAF: KSHR 152328Z 1600/1624 32009KT P6SM FEW150 FM160200 VRB04KT P6SM SCT150 FM161300 VRB04KT P6SM SKC

Säähavainnot ja -ennusteet yli 4000 lentoasemalta (METAR- ja TAF-raportit).

Käytössä olevat sääasemat on merkitty karttaan keltaisilla ja punaisilla pisteillä.

Aseta hiiri pisteen päälle nähdäksesi sääaseman nimen.

Klikkaa sitten nähdäksesi säähavainnot ja -ennusteet.

Kartan vaihtaminen: klikkaa mustalla rastilla varustettuja vihreitä pisteitä, niin voit zoomata sisään; viivalla varustettua vihreää pistettä, niin voit zoomata ulos tai vihreitä nuolia, niin pääset viereisille kartoille.


METAR-TAF: